Time;durP1;ratioP1;P1;durP2;ratioP2;P2;SDS_P1;SDS_P2;PMS_P1;PMS_P2;Temp;Humidity;BMP_temperature;BMP_pressure;BME280_temperature;BME280_humidity;BME280_pressure;Samples;Min_cycle;Max_cycle;Signal;HPM_P1;HPM_P2
2022/04/29 00:01:29;;;;;;;7.28;6.68;;;10.50;99.90;;;;;;6031936;23;20216;-87
2022/04/29 00:03:56;;;;;;;6.63;6.13;;;10.40;99.90;;;;;;6031851;23;20220;-87
2022/04/29 00:06:23;;;;;;;6.75;6.25;;;10.30;99.90;;;;;;6030991;23;20267;-87
2022/04/29 00:08:50;;;;;;;7.25;6.55;;;10.20;99.90;;;;;;6030243;23;20239;-88
2022/04/29 00:11:18;;;;;;;6.57;5.97;;;10.10;99.90;;;;;;6033536;23;20258;-87
2022/04/29 00:13:46;;;;;;;7.28;6.68;;;10.00;99.90;;;;;;6030861;23;20745;-87
2022/04/29 00:16:14;;;;;;;7.85;7.15;;;10.00;99.90;;;;;;6032890;23;20203;-87
2022/04/29 00:18:41;;;;;;;7.72;7.13;;;9.90;99.90;;;;;;6031915;23;20274;-86
2022/04/29 00:21:08;;;;;;;7.50;6.90;;;9.80;99.90;;;;;;6022565;23;20249;-87
2022/04/29 00:23:35;;;;;;;7.10;6.60;;;9.80;99.90;;;;;;6031519;23;20749;-85
2022/04/29 00:26:02;;;;;;;7.80;7.00;;;9.80;99.90;;;;;;6032361;23;20213;-86
2022/04/29 00:28:30;;;;;;;7.20;6.60;;;9.70;99.90;;;;;;6030596;23;20199;-87
2022/04/29 00:30:57;;;;;;;7.53;6.93;;;9.70;99.90;;;;;;6031983;23;20195;-87
2022/04/29 00:33:27;;;;;;;7.43;6.80;;;9.60;99.90;;;;;;6031247;23;20244;-87
2022/04/29 00:35:54;;;;;;;8.10;7.40;;;9.60;99.90;;;;;;6034771;23;20261;-87
2022/04/29 00:38:21;;;;;;;6.95;6.45;;;9.50;99.90;;;;;;6033914;23;20212;-85
2022/04/29 00:40:50;;;;;;;8.45;7.65;;;9.50;99.90;;;;;;6032035;23;21743;-87
2022/04/29 00:43:17;;;;;;;8.23;7.60;;;9.50;99.90;;;;;;6035239;23;20296;-87
2022/04/29 00:45:44;;;;;;;7.70;7.10;;;9.50;99.90;;;;;;6033147;23;20193;-86
2022/04/29 00:48:11;;;;;;;8.05;7.30;;;9.50;99.90;;;;;;6032801;23;20236;-87
2022/04/29 00:50:40;;;;;;;7.25;6.75;;;9.50;99.90;;;;;;6026177;23;20225;-88
2022/04/29 00:53:11;;;;;;;8.73;8.00;;;9.50;99.90;;;;;;6033009;23;20219;-87
2022/04/29 00:55:40;;;;;;;8.40;7.70;;;9.40;99.90;;;;;;6040843;23;20258;-86
2022/04/29 00:58:15;;;;;;;8.68;7.85;;;9.40;99.90;;;;;;6042310;23;20221;-87
2022/04/29 01:00:44;;;;;;;8.20;7.60;;;9.40;99.90;;;;;;6029732;23;20278;-85
2022/04/29 01:03:13;;;;;;;8.30;7.60;;;9.40;99.90;;;;;;6035179;23;20258;-86
2022/04/29 01:05:42;;;;;;;9.23;8.35;;;9.40;99.90;;;;;;6032772;23;20198;-88
2022/04/29 01:08:10;;;;;;;8.20;7.57;;;9.30;99.90;;;;;;6019412;23;20279;-86
2022/04/29 01:10:37;;;;;;;9.43;8.63;;;9.30;99.90;;;;;;6028673;23;20274;-87
2022/04/29 01:13:05;;;;;;;9.35;8.65;;;9.20;99.90;;;;;;6007430;23;20574;-86
2022/04/29 01:15:33;;;;;;;8.18;7.57;;;9.10;99.90;;;;;;6029778;23;20225;-87
2022/04/29 01:18:02;;;;;;;8.90;8.20;;;9.10;99.90;;;;;;6031339;23;20190;-87
2022/04/29 01:20:31;;;;;;;8.63;7.90;;;9.10;99.90;;;;;;6029882;23;20202;-87
2022/04/29 01:23:04;;;;;;;9.05;8.20;;;9.00;99.90;;;;;;6031663;23;20223;-86
2022/04/29 01:25:31;;;;;;;9.00;8.27;;;9.00;99.90;;;;;;6030067;23;20644;-87
2022/04/29 01:27:59;;;;;;;8.02;7.43;;;8.90;99.90;;;;;;6033271;23;20594;-86
2022/04/29 01:30:26;;;;;;;9.23;8.32;;;8.90;99.90;;;;;;6027720;23;20221;-86
2022/04/29 01:32:54;;;;;;;9.85;8.98;;;8.90;99.90;;;;;;6032852;23;20617;-87
2022/04/29 01:35:21;;;;;;;8.80;8.10;;;8.90;99.90;;;;;;6032043;23;20222;-87
2022/04/29 01:37:49;;;;;;;9.50;8.80;;;8.90;99.90;;;;;;6033413;23;20220;-87
2022/04/29 01:40:17;;;;;;;8.95;8.35;;;8.90;99.90;;;;;;6023658;23;20202;-85
2022/04/29 01:42:45;;;;;;;9.88;9.07;;;8.90;99.90;;;;;;6031019;23;20222;-87
2022/04/29 01:45:13;;;;;;;10.50;9.60;;;8.90;99.90;;;;;;6032642;23;20282;-87
2022/04/29 01:47:39;;;;;;;9.65;8.75;;;8.90;99.90;;;;;;6033581;23;20274;-87
2022/04/29 01:50:07;;;;;;;9.80;9.00;;;8.90;99.90;;;;;;6028301;23;20321;-87
2022/04/29 01:52:34;;;;;;;10.20;9.30;;;8.90;99.90;;;;;;6032469;23;20232;-87
2022/04/29 01:55:01;;;;;;;11.07;10.02;;;8.90;99.90;;;;;;6031808;23;20198;-86
2022/04/29 01:57:29;;;;;;;10.55;9.63;;;8.80;99.90;;;;;;6031471;23;20278;-86
2022/04/29 01:59:57;;;;;;;10.90;9.85;;;8.80;99.90;;;;;;6029564;23;20226;-86
2022/04/29 02:02:25;;;;;;;10.48;9.57;;;8.80;99.90;;;;;;6033038;23;20823;-87
2022/04/29 02:04:52;;;;;;;10.57;9.68;;;8.70;99.90;;;;;;6032115;23;21430;-87
2022/04/29 02:07:19;;;;;;;9.73;8.93;;;8.70;99.90;;;;;;6011009;23;20293;-87
2022/04/29 02:09:46;;;;;;;11.73;10.73;;;8.60;99.90;;;;;;6015371;23;20535;-86
2022/04/29 02:12:15;;;;;;;10.75;9.85;;;8.60;99.90;;;;;;6032326;23;20691;-87
2022/04/29 02:14:44;;;;;;;11.80;10.65;;;8.70;99.90;;;;;;6033537;23;20598;-86
2022/04/29 02:17:12;;;;;;;12.23;11.23;;;8.70;99.90;;;;;;6030603;23;20228;-86
2022/04/29 02:19:40;;;;;;;12.13;11.13;;;8.70;99.90;;;;;;6032071;23;20198;-86
2022/04/29 02:22:09;;;;;;;13.35;12.05;;;8.70;99.90;;;;;;6032882;23;20264;-87
2022/04/29 02:24:36;;;;;;;11.65;10.75;;;8.90;99.90;;;;;;6031053;23;20608;-86
2022/04/29 02:27:04;;;;;;;13.30;12.10;;;8.80;99.90;;;;;;6031669;23;20225;-87
2022/04/29 02:29:34;;;;;;;12.05;10.93;;;8.70;99.90;;;;;;6019001;23;20621;-86
2022/04/29 02:32:03;;;;;;;11.98;10.98;;;8.70;99.90;;;;;;6032480;23;20264;-87
2022/04/29 02:34:30;;;;;;;11.50;10.40;;;8.70;99.90;;;;;;6032950;23;20282;-87
2022/04/29 02:36:57;;;;;;;11.27;10.35;;;8.60;99.90;;;;;;6032352;23;20199;-85
2022/04/29 02:39:24;;;;;;;11.80;10.80;;;8.70;99.90;;;;;;6028802;23;20261;-87
2022/04/29 02:41:52;;;;;;;11.40;10.40;;;8.60;99.90;;;;;;6032656;23;20201;-86
2022/04/29 02:44:19;;;;;;;10.82;9.95;;;8.50;99.90;;;;;;6035112;23;20555;-87
2022/04/29 02:49:29;;;;;;;11.55;10.65;;;8.40;99.90;;;;;;6025293;23;20193;-87
2022/04/29 02:51:56;;;;;;;10.27;9.40;;;8.30;99.90;;;;;;6049113;23;20193;-86
2022/04/29 02:54:23;;;;;;;10.55;9.75;;;8.30;99.90;;;;;;6055138;23;20196;-88
2022/04/29 02:56:51;;;;;;;10.65;9.75;;;8.30;99.90;;;;;;6040519;23;20224;-87
2022/04/29 02:59:18;;;;;;;11.40;10.50;;;8.30;99.90;;;;;;6043372;23;20189;-88
2022/04/29 03:01:46;;;;;;;11.00;9.88;;;8.20;99.90;;;;;;6029196;23;20208;-87
2022/04/29 03:04:13;;;;;;;11.10;10.15;;;8.20;99.90;;;;;;6030986;23;20557;-87
2022/04/29 03:06:42;;;;;;;10.20;9.35;;;8.20;99.90;;;;;;6032827;23;20701;-87
2022/04/29 03:09:11;;;;;;;10.70;9.90;;;8.10;99.90;;;;;;6032143;23;20211;-87
2022/04/29 03:11:39;;;;;;;10.18;9.38;;;8.10;99.90;;;;;;6020983;23;20213;-87
2022/04/29 03:14:06;;;;;;;12.05;10.95;;;8.00;99.90;;;;;;6033772;23;20201;-87
2022/04/29 03:16:33;;;;;;;12.50;11.40;;;8.00;99.90;;;;;;6031955;23;20276;-87
2022/04/29 03:19:01;;;;;;;12.10;11.20;;;8.00;99.90;;;;;;6031829;23;20193;-87
2022/04/29 03:21:28;;;;;;;11.77;10.68;;;8.10;99.90;;;;;;6025890;23;20189;-87
2022/04/29 03:23:56;;;;;;;11.18;10.23;;;8.00;99.90;;;;;;6031551;23;20321;-85
2022/04/29 03:26:24;;;;;;;10.60;9.80;;;8.00;99.90;;;;;;6029493;23;20197;-86
2022/04/29 03:28:51;;;;;;;11.27;10.27;;;8.10;99.90;;;;;;6032801;23;20197;-87
2022/04/29 03:31:18;;;;;;;12.05;11.05;;;8.10;99.90;;;;;;6030515;23;20268;-87
2022/04/29 03:33:45;;;;;;;11.88;10.88;;;8.10;99.90;;;;;;6032790;23;20926;-86
2022/04/29 03:36:12;;;;;;;12.27;11.27;;;8.10;99.90;;;;;;6032401;23;20193;-87
2022/04/29 03:38:39;;;;;;;11.38;10.57;;;8.20;99.90;;;;;;6032450;23;20197;-87
2022/04/29 03:41:08;;;;;;;12.63;10.65;;;8.20;99.90;;;;;;6031440;23;20189;-87
2022/04/29 03:43:36;;;;;;;10.82;10.02;;;8.20;99.90;;;;;;6022562;23;20229;-87
2022/04/29 03:46:03;;;;;;;10.85;9.98;;;8.20;99.90;;;;;;6022736;23;20204;-87
2022/04/29 03:49:35;;;;;;;11.40;10.50;;;8.20;99.90;;;;;;6030176;23;20195;-88
2022/04/29 03:51:18;;;;;;;10.95;10.05;;;8.20;99.90;;;;;;6018541;23;20186;-88
2022/04/29 03:53:45;;;;;;;10.32;9.50;;;8.20;99.90;;;;;;6027787;23;20331;-87
2022/04/29 03:56:14;;;;;;;10.68;9.75;;;8.20;99.90;;;;;;6026781;23;20196;-86
2022/04/29 03:58:41;;;;;;;9.93;9.15;;;8.20;99.90;;;;;;6032482;23;20198;-87
2022/04/29 04:01:09;;;;;;;9.98;9.18;;;8.20;99.90;;;;;;6028395;23;20280;-86
2022/04/29 04:03:37;;;;;;;10.25;9.35;;;8.30;99.90;;;;;;6032950;23;20758;-87
2022/04/29 04:08:49;;;;;;;10.25;9.45;;;8.20;99.90;;;;;;6003807;23;20190;-87
2022/04/29 04:11:18;;;;;;;11.40;10.40;;;8.20;99.90;;;;;;6014319;23;20249;-86
2022/04/29 04:13:46;;;;;;;10.65;9.73;;;8.10;99.90;;;;;;6025934;23;20573;-87
2022/04/29 04:16:13;;;;;;;10.57;9.68;;;8.10;99.90;;;;;;6041928;23;20190;-88
2022/04/29 04:18:40;;;;;;;10.40;9.50;;;8.10;99.90;;;;;;6045725;23;20217;-87
2022/04/29 04:21:07;;;;;;;11.55;10.55;;;8.10;99.90;;;;;;6044373;23;20224;-87
2022/04/29 04:23:34;;;;;;;11.15;10.25;;;8.10;99.90;;;;;;6044923;23;20277;-88
2022/04/29 04:26:01;;;;;;;10.70;9.90;;;8.00;99.90;;;;;;6038490;23;20265;-87
2022/04/29 04:28:30;;;;;;;11.23;10.30;;;7.90;99.90;;;;;;6020485;23;20268;-87
2022/04/29 04:30:58;;;;;;;11.70;10.55;;;7.80;99.90;;;;;;6024367;23;20221;-86
2022/04/29 04:33:25;;;;;;;11.27;10.27;;;7.80;99.90;;;;;;6017140;23;20593;-87
2022/04/29 04:35:52;;;;;;;11.52;10.50;;;7.70;99.90;;;;;;6022874;23;20206;-87
2022/04/29 04:38:19;;;;;;;15.38;12.05;;;7.70;99.90;;;;;;6028609;23;20189;-91
2022/04/29 04:40:47;;;;;;;11.35;10.27;;;7.60;99.90;;;;;;6027854;23;20212;-90
2022/04/29 04:43:14;;;;;;;11.80;10.23;;;7.60;99.90;;;;;;6027926;23;20936;-88
2022/04/29 04:45:42;;;;;;;11.23;10.05;;;7.70;99.90;;;;;;6031100;23;20205;-89
2022/04/29 04:48:11;;;;;;;11.35;10.30;;;7.70;99.90;;;;;;6030156;23;20190;-89
2022/04/29 04:50:38;;;;;;;11.65;10.55;;;7.80;99.90;;;;;;6027916;23;20224;-89
2022/04/29 04:53:05;;;;;;;10.57;9.77;;;7.90;99.90;;;;;;6030303;23;20278;-87
2022/04/29 04:55:32;;;;;;;11.07;10.00;;;7.90;99.90;;;;;;6027199;23;20688;-87
2022/04/29 04:58:00;;;;;;;11.50;10.40;;;8.00;99.90;;;;;;6030378;23;20193;-88
2022/04/29 05:00:28;;;;;;;11.10;10.07;;;8.10;99.90;;;;;;6028826;23;20189;-89
2022/04/29 05:02:58;;;;;;;11.85;10.70;;;8.10;99.90;;;;;;6021368;23;20209;-87
2022/04/29 05:05:25;;;;;;;11.82;10.57;;;8.20;99.90;;;;;;6021481;23;20691;-87
2022/04/29 05:07:52;;;;;;;11.35;10.35;;;8.20;99.90;;;;;;6014666;23;20198;-86
2022/04/29 05:10:20;;;;;;;11.18;10.10;;;8.20;99.90;;;;;;6026332;23;20194;-80
2022/04/29 05:12:48;;;;;;;11.80;9.80;;;8.30;99.90;;;;;;6032837;23;20240;-80
2022/04/29 05:15:16;;;;;;;9.45;8.73;;;8.40;99.90;;;;;;6027332;23;20185;-78
2022/04/29 05:17:43;;;;;;;10.20;9.38;;;8.50;99.90;;;;;;6015931;23;20266;-85
2022/04/29 05:20:15;;;;;;;11.90;10.80;;;8.50;99.90;;;;;;6018414;23;20189;-84
2022/04/29 05:22:45;;;;;;;12.10;11.05;;;8.60;99.90;;;;;;6019924;23;20368;-86
2022/04/29 05:25:12;;;;;;;13.13;11.98;;;8.60;99.90;;;;;;6018844;23;20222;-86
2022/04/29 05:27:38;;;;;;;12.15;11.10;;;8.70;99.90;;;;;;6029090;23;20243;-85
2022/04/29 05:30:08;;;;;;;12.10;11.10;;;8.70;99.90;;;;;;6031097;23;20217;-86
2022/04/29 05:32:35;;;;;;;13.18;11.98;;;8.80;99.90;;;;;;6030411;23;20260;-86
2022/04/29 05:35:03;;;;;;;13.25;12.15;;;8.80;99.90;;;;;;6025883;23;20194;-86
2022/04/29 05:37:32;;;;;;;14.00;12.90;;;8.80;99.90;;;;;;6026919;23;20650;-86
2022/04/29 05:42:44;;;;;;;12.90;11.80;;;8.90;99.90;;;;;;6026604;23;20260;-86
2022/04/29 05:45:11;;;;;;;13.85;12.75;;;9.00;99.90;;;;;;6025884;23;20237;-88
2022/04/29 05:47:38;;;;;;;12.77;11.77;;;8.90;99.90;;;;;;6031985;23;20249;-88
2022/04/29 05:50:07;;;;;;;12.30;11.05;;;9.00;99.90;;;;;;6029378;23;20183;-88
2022/04/29 05:52:35;;;;;;;13.90;12.80;;;9.20;99.90;;;;;;6032711;23;20283;-87
2022/04/29 05:55:02;;;;;;;12.55;11.45;;;9.20;99.90;;;;;;6025436;23;20195;-88
2022/04/29 05:57:29;;;;;;;13.07;11.98;;;9.30;99.90;;;;;;6026878;23;20203;-87
2022/04/29 05:59:58;;;;;;;13.65;12.40;;;9.40;99.90;;;;;;6027346;23;20551;-85
2022/04/29 06:02:26;;;;;;;13.00;12.00;;;9.60;99.90;;;;;;6025539;23;20209;-84
2022/04/29 06:04:53;;;;;;;13.30;12.10;;;9.70;99.90;;;;;;6022610;23;20245;-82
2022/04/29 06:07:20;;;;;;;12.77;11.68;;;9.80;99.90;;;;;;6030631;23;20191;-72
2022/04/29 06:09:48;;;;;;;12.35;11.35;;;10.00;99.90;;;;;;6030108;23;20212;-74
2022/04/29 06:12:16;;;;;;;11.77;10.85;;;10.30;99.90;;;;;;6017525;23;20213;-80
2022/04/29 06:14:45;;;;;;;11.07;10.27;;;10.60;99.90;;;;;;6015408;23;20186;-81
2022/04/29 06:17:12;;;;;;;11.00;10.20;;;10.70;99.90;;;;;;6012045;23;20208;-81
2022/04/29 06:19:40;;;;;;;11.48;10.38;;;10.90;99.90;;;;;;6024809;23;20217;-84
2022/04/29 06:22:07;;;;;;;11.73;10.80;;;11.20;99.90;;;;;;6022269;23;20628;-84
2022/04/29 06:24:35;;;;;;;11.00;10.20;;;11.30;99.90;;;;;;6013612;23;20209;-84
2022/04/29 06:27:04;;;;;;;11.48;10.65;;;11.50;99.90;;;;;;6017268;23;20275;-84
2022/04/29 06:29:32;;;;;;;11.77;10.77;;;11.60;99.90;;;;;;6018553;23;21023;-86
2022/04/29 06:31:59;;;;;;;11.00;10.10;;;11.80;99.90;;;;;;6023224;23;20209;-87
2022/04/29 06:34:27;;;;;;;10.13;9.05;;;11.90;99.90;;;;;;6019570;23;20222;-86
2022/04/29 06:36:54;;;;;;;10.43;9.57;;;12.00;99.90;;;;;;6024757;23;20443;-87
2022/04/29 06:39:21;;;;;;;9.02;8.32;;;12.20;99.90;;;;;;6028887;23;20998;-86
2022/04/29 06:41:48;;;;;;;10.10;9.30;;;12.40;99.90;;;;;;6028888;23;20209;-87
2022/04/29 06:44:17;;;;;;;9.93;9.02;;;12.50;99.90;;;;;;6023064;23;20546;-86
2022/04/29 06:46:44;;;;;;;9.40;8.70;;;12.60;99.90;;;;;;6021682;23;20217;-86
2022/04/29 06:49:12;;;;;;;10.70;9.80;;;12.50;99.90;;;;;;6025554;23;20224;-87
2022/04/29 06:51:39;;;;;;;9.55;8.65;;;12.60;99.90;;;;;;6013567;23;20570;-87
2022/04/29 06:54:07;;;;;;;9.38;8.68;;;12.70;99.90;;;;;;6026278;23;20253;-88
2022/04/29 06:56:34;;;;;;;9.47;8.50;;;12.90;99.90;;;;;;6023908;23;20202;-87
2022/04/29 06:59:02;;;;;;;8.90;8.18;;;13.10;99.90;;;;;;6009829;23;20521;-86
2022/04/29 07:01:32;;;;;;;9.82;9.00;;;13.30;99.90;;;;;;6015788;23;20252;-87
2022/04/29 07:03:59;;;;;;;10.33;9.53;;;13.40;99.90;;;;;;6003750;23;20246;-86
2022/04/29 07:06:27;;;;;;;10.60;9.70;;;13.60;99.90;;;;;;6016754;23;20452;-87
2022/04/29 07:08:54;;;;;;;10.93;10.02;;;13.80;99.90;;;;;;6005711;23;20278;-87
2022/04/29 07:11:21;;;;;;;11.27;10.47;;;14.10;99.90;;;;;;6024717;23;20205;-86
2022/04/29 07:13:48;;;;;;;12.25;10.57;;;14.30;99.90;;;;;;6032549;23;20440;-87
2022/04/29 07:16:15;;;;;;;12.10;10.98;;;14.30;99.90;;;;;;6023934;23;20182;-87
2022/04/29 07:18:44;;;;;;;11.57;10.67;;;14.30;99.90;;;;;;6020106;23;20714;-87
2022/04/29 07:21:11;;;;;;;12.20;11.13;;;14.40;99.90;;;;;;6026994;23;20525;-85
2022/04/29 07:23:38;;;;;;;11.10;10.27;;;14.60;99.90;;;;;;6013468;23;20941;-88
2022/04/29 07:26:05;;;;;;;11.47;10.03;;;14.90;99.90;;;;;;6016596;23;20614;-78
2022/04/29 07:28:33;;;;;;;10.77;9.77;;;15.10;99.90;;;;;;6014578;23;20451;-91
2022/04/29 07:31:02;;;;;;;10.70;9.60;;;15.20;99.90;;;;;;6021236;23;20455;-92
2022/04/29 07:33:31;;;;;;;9.90;9.10;;;15.20;99.90;;;;;;6026628;23;21177;-90
2022/04/29 07:41:46;;;;;;;10.00;9.30;;;15.60;99.90;;;;;;6024240;23;20501;-85
2022/04/29 07:44:14;;;;;;;9.53;8.83;;;15.70;99.90;;;;;;6015083;23;20812;-85
2022/04/29 07:46:43;;;;;;;8.57;7.90;;;15.90;99.90;;;;;;6017639;23;21126;-85
2022/04/29 07:49:10;;;;;;;9.00;8.20;;;16.20;99.90;;;;;;6014944;23;20445;-85
2022/04/29 07:51:39;;;;;;;9.40;8.60;;;16.40;99.90;;;;;;6013861;23;20472;-84
2022/04/29 07:54:07;;;;;;;9.27;8.57;;;16.50;99.90;;;;;;6012678;23;20852;-85
2022/04/29 07:56:34;;;;;;;8.90;8.20;;;16.40;99.90;;;;;;6024579;23;20538;-84
2022/04/29 07:59:02;;;;;;;8.90;8.20;;;16.30;99.90;;;;;;6028123;23;21058;-84
2022/04/29 08:01:30;;;;;;;8.37;7.77;;;16.30;99.90;;;;;;6017008;23;20457;-84
2022/04/29 08:03:58;;;;;;;9.20;8.40;;;16.30;99.90;;;;;;6024750;23;20466;-84
2022/04/29 08:06:26;;;;;;;8.23;7.53;;;16.20;99.90;;;;;;6024456;23;20532;-84
2022/04/29 08:08:54;;;;;;;9.10;8.40;;;16.20;99.90;;;;;;6026320;23;20447;-84
2022/04/29 08:11:21;;;;;;;8.53;7.83;;;16.10;99.90;;;;;;6026739;23;21054;-84
2022/04/29 08:13:50;;;;;;;9.53;8.57;;;16.20;99.90;;;;;;6028212;23;20460;-84
2022/04/29 08:16:17;;;;;;;8.90;8.20;;;16.40;99.90;;;;;;6014963;23;20500;-84
2022/04/29 08:18:46;;;;;;;7.90;7.30;;;17.10;99.90;;;;;;6017064;23;20432;-87
2022/04/29 08:21:13;;;;;;;7.57;7.07;;;18.50;99.90;;;;;;6021958;23;21242;-86
2022/04/29 08:23:40;;;;;;;8.23;7.53;;;20.00;97.50;;;;;;6023406;23;20445;-85
2022/04/29 08:26:09;;;;;;;7.30;6.70;;;21.30;93.20;;;;;;6031456;23;20935;-86
2022/04/29 08:28:36;;;;;;;7.60;6.80;;;22.70;90.00;;;;;;6020116;23;20661;-85
2022/04/29 08:31:04;;;;;;;8.03;6.47;;;23.60;79.40;;;;;;6025021;23;20506;-85
2022/04/29 08:33:31;;;;;;;7.27;6.77;;;24.80;73.30;;;;;;6017070;23;20465;-86
2022/04/29 08:35:58;;;;;;;7.60;6.97;;;25.30;68.00;;;;;;6029442;23;20440;-85
2022/04/29 08:38:26;;;;;;;7.37;6.80;;;25.90;64.40;;;;;;6013461;23;20495;-85
2022/04/29 08:40:53;;;;;;;7.83;7.10;;;26.30;61.50;;;;;;6017521;23;20563;-85
2022/04/29 08:43:22;;;;;;;6.60;6.00;;;26.60;59.90;;;;;;6027264;23;20486;-86
2022/04/29 08:45:50;;;;;;;7.83;6.30;;;26.80;58.30;;;;;;6014381;23;20518;-86
2022/04/29 08:48:18;;;;;;;7.60;7.00;;;26.80;56.80;;;;;;6023231;23;20808;-86
2022/04/29 08:50:46;;;;;;;7.50;6.90;;;26.80;53.90;;;;;;6021585;23;20476;-86
2022/04/29 08:53:13;;;;;;;7.27;6.77;;;26.90;52.00;;;;;;6022461;23;20441;-85
2022/04/29 08:58:39;;;;;;;8.10;7.30;;;26.70;53.00;;;;;;6022360;23;20475;-86
2022/04/29 09:01:09;;;;;;;7.50;6.90;;;26.60;52.80;;;;;;6010384;23;20524;-87
2022/04/29 09:03:37;;;;;;;7.53;6.50;;;26.30;51.00;;;;;;6021094;23;20489;-86
2022/04/29 09:06:06;;;;;;;7.47;6.87;;;25.50;52.30;;;;;;6027727;23;20452;-87
2022/04/29 09:08:40;;;;;;;6.50;6.00;;;25.10;54.00;;;;;;6032093;23;20878;-86
2022/04/29 09:11:08;;;;;;;7.20;6.60;;;24.80;55.00;;;;;;6022845;23;20495;-87
2022/04/29 09:13:38;;;;;;;6.93;6.30;;;24.50;55.20;;;;;;6025223;23;20443;-88
2022/04/29 09:16:10;;;;;;;6.10;5.63;;;24.70;54.90;;;;;;6026709;23;20470;-87
2022/04/29 09:18:40;;;;;;;6.80;6.20;;;24.90;55.20;;;;;;6028548;23;20532;-87
2022/04/29 09:21:10;;;;;;;7.50;6.90;;;25.60;54.40;;;;;;6028898;23;20468;-87
2022/04/29 09:23:39;;;;;;;7.57;6.10;;;25.70;53.00;;;;;;6020226;23;20811;-87
2022/04/29 09:26:07;;;;;;;7.30;6.70;;;26.40;53.20;;;;;;6025916;23;20511;-88
2022/04/29 09:28:36;;;;;;;6.83;6.33;;;27.10;51.70;;;;;;6029117;23;21007;-86
2022/04/29 09:31:05;;;;;;;6.00;5.50;;;27.30;50.30;;;;;;6026102;23;20479;-84
2022/04/29 09:33:35;;;;;;;6.37;5.77;;;26.40;49.30;;;;;;6030478;23;20502;-87
2022/04/29 09:36:02;;;;;;;6.63;6.13;;;25.80;49.40;;;;;;6021885;23;20440;-88
2022/04/29 09:41:23;;;;;;;5.87;5.40;;;25.00;50.60;;;;;;6024851;23;20843;-87
2022/04/29 09:43:51;;;;;;;6.13;5.63;;;24.80;51.80;;;;;;6031811;23;20443;-84
2022/04/29 09:46:20;;;;;;;6.27;5.77;;;24.30;51.80;;;;;;6035617;23;20449;-82
2022/04/29 09:49:03;;;;;;;6.43;6.03;;;23.80;52.00;;;;;;6036844;23;20468;-85
2022/04/29 09:51:48;;;;;;;5.50;5.10;;;23.70;52.20;;;;;;6037146;23;20481;-85
2022/04/29 09:54:20;;;;;;;6.60;6.00;;;23.50;53.70;;;;;;6014338;23;20596;-87
2022/04/29 09:57:03;;;;;;;6.80;6.30;;;23.30;54.90;;;;;;6031445;23;20622;-87
2022/04/29 09:59:33;;;;;;;6.70;6.20;;;23.10;54.60;;;;;;6034081;23;20491;-87
2022/04/29 10:02:02;;;;;;;6.30;5.73;;;23.30;54.60;;;;;;6033634;23;20535;-85
2022/04/29 10:04:32;;;;;;;7.13;6.43;;;23.40;54.90;;;;;;6032922;23;20969;-83
2022/04/29 10:07:00;;;;;;;6.17;5.70;;;23.70;55.30;;;;;;6026883;23;20480;-90
2022/04/29 10:09:32;;;;;;;5.90;5.30;;;23.70;54.90;;;;;;6013205;23;20441;-81
2022/04/29 10:12:00;;;;;;;6.10;5.60;;;24.10;57.10;;;;;;6016171;23;20524;-82
2022/04/29 10:14:29;;;;;;;6.27;5.87;;;24.20;54.60;;;;;;6019989;23;20473;-90
2022/04/29 10:22:37;;;;;;;7.03;6.53;;;25.20;53.30;;;;;;6019471;23;20492;-91
2022/04/29 10:25:09;;;;;;;7.63;5.83;;;25.70;52.20;;;;;;6026201;23;20461;-91
2022/04/29 10:27:49;;;;;;;6.33;5.73;;;26.30;51.80;;;;;;6031896;23;20447;-90
2022/04/29 10:30:26;;;;;;;6.07;5.57;;;27.20;51.00;;;;;;6031772;23;20515;-90
2022/04/29 10:33:06;;;;;;;5.27;4.77;;;27.90;50.70;;;;;;6031825;23;20587;-90
2022/04/29 10:35:56;;;;;;;5.17;4.77;;;28.60;50.20;;;;;;6027015;23;20457;-91
2022/04/29 10:38:28;;;;;;;5.10;4.70;;;29.00;48.60;;;;;;6023516;23;20444;-90
2022/04/29 10:41:13;;;;;;;5.13;4.73;;;28.90;48.10;;;;;;6035171;23;20478;-90
2022/04/29 10:43:45;;;;;;;3.67;3.37;;;28.60;48.30;;;;;;6028492;23;20436;-88
2022/04/29 10:46:19;;;;;;;4.47;4.10;;;28.00;46.60;;;;;;6032676;23;20963;-92
2022/04/29 10:48:53;;;;;;;4.57;4.17;;;28.30;46.10;;;;;;6033526;23;20490;-90
2022/04/29 10:51:22;;;;;;;4.10;3.60;;;28.50;45.70;;;;;;6036075;23;20511;-89
2022/04/29 10:53:51;;;;;;;4.47;4.07;;;29.20;45.00;;;;;;6028582;23;20788;-89
2022/04/29 10:56:38;;;;;;;4.90;4.50;;;29.10;43.50;;;;;;6032636;23;20852;-91
2022/04/29 10:59:18;;;;;;;4.63;4.33;;;27.70;44.30;;;;;;6019860;23;20534;-89
2022/04/29 11:02:07;;;;;;;4.27;3.97;;;27.20;44.80;;;;;;6023352;23;20464;-88
2022/04/29 11:04:46;;;;;;;4.13;3.83;;;26.70;46.90;;;;;;6018241;23;20515;-90
2022/04/29 11:07:46;;;;;;;5.00;4.60;;;26.90;47.20;;;;;;6030498;23;20536;-89
2022/04/29 11:10:18;;;;;;;4.77;4.40;;;27.10;46.70;;;;;;6023001;23;20630;-80
2022/04/29 11:13:00;;;;;;;5.03;4.63;;;27.20;46.40;;;;;;6008245;23;20589;-82
2022/04/29 11:15:42;;;;;;;4.63;4.20;;;27.30;45.80;;;;;;6017710;23;20440;-83
2022/04/29 11:18:18;;;;;;;4.87;4.47;;;27.50;47.00;;;;;;6010417;23;20479;-82
2022/04/29 11:20:48;;;;;;;4.70;4.40;;;27.40;46.10;;;;;;6017579;23;20763;-82
2022/04/29 11:26:11;;;;;;;4.87;4.47;;;26.50;46.80;;;;;;6021022;23;20502;-83
2022/04/29 11:28:38;;;;;;;4.97;4.50;;;25.80;49.10;;;;;;6015377;23;20526;-82
2022/04/29 11:31:07;;;;;;;4.10;3.90;;;25.40;48.60;;;;;;6021935;23;20486;-79
2022/04/29 11:33:34;;;;;;;4.00;3.60;;;24.80;47.80;;;;;;6024714;23;20442;-82
2022/04/29 11:36:04;;;;;;;3.63;3.40;;;24.40;49.40;;;;;;6018542;23;20476;-82
2022/04/29 11:38:32;;;;;;;3.97;3.77;;;24.20;50.00;;;;;;6014899;23;20451;-82
2022/04/29 11:41:02;;;;;;;4.83;4.33;;;24.20;49.50;;;;;;6021193;23;20870;-82
2022/04/29 11:43:29;;;;;;;3.73;3.43;;;24.00;48.10;;;;;;6024143;23;20514;-82
2022/04/29 11:46:03;;;;;;;4.53;4.23;;;23.90;49.60;;;;;;6018364;23;20475;-82
2022/04/29 11:48:30;;;;;;;4.20;3.90;;;23.70;48.70;;;;;;6018414;23;20429;-82
2022/04/29 11:50:58;;;;;;;4.13;3.80;;;23.70;48.60;;;;;;6021379;23;20464;-82
2022/04/29 11:53:27;;;;;;;4.07;3.77;;;23.70;49.10;;;;;;6019678;23;20864;-82
2022/04/29 11:55:55;;;;;;;3.93;3.63;;;23.60;49.90;;;;;;6018030;23;20444;-82
2022/04/29 11:58:22;;;;;;;3.73;3.43;;;23.40;50.80;;;;;;6012664;23;20476;-82
2022/04/29 12:00:54;;;;;;;3.73;3.40;;;23.40;50.70;;;;;;6015604;23;21047;-82
2022/04/29 12:03:23;;;;;;;4.10;3.80;;;23.40;51.00;;;;;;6018243;23;21005;-83
2022/04/29 12:05:50;;;;;;;2.97;2.77;;;23.60;50.50;;;;;;6026525;23;20465;-82
2022/04/29 12:08:18;;;;;;;3.53;3.33;;;23.80;50.00;;;;;;6011922;23;20467;-80
2022/04/29 12:10:48;;;;;;;3.83;3.53;;;24.00;49.90;;;;;;6017106;23;20510;-70
2022/04/29 12:13:18;;;;;;;3.17;2.97;;;23.70;49.30;;;;;;6021361;23;20515;-72
2022/04/29 12:15:45;;;;;;;3.40;3.20;;;23.70;49.90;;;;;;6030264;23;20448;-77
2022/04/29 12:18:15;;;;;;;3.60;3.30;;;23.60;49.50;;;;;;6020062;23;20436;-87
2022/04/29 12:20:44;;;;;;;3.33;3.00;;;23.80;49.30;;;;;;6019081;23;20468;-87
2022/04/29 12:23:19;;;;;;;3.53;3.23;;;23.60;48.70;;;;;;6019460;23;20449;-88
2022/04/29 12:25:54;;;;;;;3.20;3.00;;;23.60;48.00;;;;;;6021794;23;20472;-87
2022/04/29 12:28:23;;;;;;;4.13;3.83;;;24.00;48.80;;;;;;6027747;23;20531;-88
2022/04/29 12:36:31;;;;;;;3.70;3.50;;;25.10;48.10;;;;;;6024244;23;20515;-88
2022/04/29 12:39:06;;;;;;;4.00;3.47;;;25.60;47.20;;;;;;6024205;23;20950;-87
2022/04/29 12:41:36;;;;;;;4.07;3.77;;;25.60;47.00;;;;;;6027197;23;20491;-87
2022/04/29 12:44:11;;;;;;;3.67;3.47;;;25.60;47.00;;;;;;6037539;23;20471;-88
2022/04/29 12:46:39;;;;;;;3.60;3.33;;;25.90;45.80;;;;;;6037116;23;20467;-88
2022/04/29 12:49:06;;;;;;;4.00;3.80;;;26.20;46.10;;;;;;6041347;23;20448;-87
2022/04/29 12:51:35;;;;;;;3.30;3.10;;;26.10;46.80;;;;;;6045878;23;20554;-88
2022/04/29 12:54:05;;;;;;;3.33;3.03;;;25.90;45.60;;;;;;6043749;23;20517;-87
2022/04/29 12:56:35;;;;;;;3.20;2.90;;;25.80;45.80;;;;;;6034463;23;20440;-87
2022/04/29 12:59:04;;;;;;;2.90;2.70;;;26.20;46.90;;;;;;6033198;23;20551;-88
2022/04/29 13:01:37;;;;;;;2.90;2.70;;;27.00;45.70;;;;;;6027662;23;20835;-88
2022/04/29 13:04:06;;;;;;;3.03;2.83;;;27.70;44.70;;;;;;6029959;23;20486;-87
2022/04/29 13:06:34;;;;;;;3.30;3.10;;;27.90;44.00;;;;;;6021225;23;20476;-87
2022/04/29 13:09:04;;;;;;;2.80;2.60;;;28.10;44.60;;;;;;6027872;23;20519;-86
2022/04/29 13:11:32;;;;;;;2.93;2.70;;;28.10;44.30;;;;;;6020537;23;20492;-89
2022/04/29 13:14:00;;;;;;;5.90;3.00;;;28.40;42.80;;;;;;6019333;23;20555;-86
2022/04/29 13:16:27;;;;;;;2.90;2.70;;;28.20;43.10;;;;;;6015984;23;20452;-88
2022/04/29 13:18:55;;;;;;;3.23;3.03;;;28.70;43.10;;;;;;6022127;23;20437;-78
2022/04/29 13:21:23;;;;;;;3.37;3.17;;;28.40;41.60;;;;;;6019574;23;20568;-88
2022/04/29 13:23:51;;;;;;;2.83;2.63;;;27.90;42.10;;;;;;6027371;23;20527;-90
2022/04/29 13:26:18;;;;;;;3.40;3.10;;;27.90;42.90;;;;;;6030413;23;20507;-90
2022/04/29 13:28:45;;;;;;;3.23;2.90;;;27.40;43.60;;;;;;6027165;23;20457;-88